createdAt,value
2019-04-20T00:02:51.094Z,8.80
2019-04-20T00:05:53.223Z,8.80
2019-04-20T00:09:07.352Z,8.60
2019-04-20T00:12:15.723Z,8.60
2019-04-20T00:15:19.616Z,8.60
2019-04-20T00:18:36.881Z,8.70
2019-04-20T00:21:42.699Z,8.70
2019-04-20T00:25:07.128Z,8.60
2019-04-20T00:28:31.648Z,8.50
2019-04-20T00:31:35.123Z,8.30
2019-04-20T00:34:33.248Z,8.20
2019-04-20T00:37:37.982Z,8.00
2019-04-20T00:40:45.519Z,8.00
2019-04-20T00:43:53.389Z,7.90
2019-04-20T00:47:14.430Z,7.90
2019-04-20T00:50:24.719Z,7.70
2019-04-20T00:53:26.185Z,7.60
2019-04-20T00:56:26.473Z,7.40
2019-04-20T00:59:55.298Z,7.40
2019-04-20T01:02:52.213Z,7.30
2019-04-20T01:06:28.798Z,7.30
2019-04-20T01:09:45.709Z,7.20
2019-04-20T01:13:01.163Z,7.10
2019-04-20T01:16:07.708Z,7.00
2019-04-20T01:19:09.610Z,7.00
2019-04-20T01:22:19.867Z,6.90
2019-04-20T01:25:30.872Z,6.90
2019-04-20T01:28:46.450Z,6.90
2019-04-20T01:31:55.954Z,6.90
2019-04-20T01:34:59.879Z,6.80
2019-04-20T01:38:16.378Z,6.80
2019-04-20T01:41:07.671Z,6.60
2019-04-20T01:44:18.944Z,6.60
2019-04-20T01:47:30.597Z,6.60
2019-04-20T01:50:35.331Z,6.50
2019-04-20T01:54:02.414Z,6.30
2019-04-20T01:57:10.282Z,6.30
2019-04-20T02:00:36.991Z,6.20
2019-04-20T02:04:03.808Z,6.30
2019-04-20T02:07:11.986Z,6.30
2019-04-20T02:10:23.021Z,6.20
2019-04-20T02:13:36.124Z,6.10
2019-04-20T02:16:43.596Z,6.00
2019-04-20T02:20:06.583Z,6.00
2019-04-20T02:23:09.367Z,5.90
2019-04-20T02:26:02.874Z,5.80
2019-04-20T02:29:36.039Z,5.80
2019-04-20T02:32:59.271Z,5.70
2019-04-20T02:36:25.084Z,5.60
2019-04-20T02:39:37.581Z,5.60
2019-04-20T02:42:57.439Z,5.60
2019-04-20T02:45:47.089Z,5.60
2019-04-20T02:48:50.759Z,5.60
2019-04-20T02:55:09.428Z,5.60
2019-04-20T02:58:20.497Z,5.50
2019-04-20T03:01:55.281Z,5.40
2019-04-20T03:04:40.274Z,5.30
2019-04-20T03:07:57.418Z,5.30
2019-04-20T03:11:19.188Z,5.30
2019-04-20T03:14:13.912Z,5.20
2019-04-20T03:17:30.055Z,5.20
2019-04-20T03:20:36.811Z,5.10
2019-04-20T03:23:50.047Z,5.10
2019-04-20T03:26:55.679Z,5.10
2019-04-20T03:36:53.555Z,5.00
2019-04-20T03:39:54.100Z,5.00
2019-04-20T03:42:46.439Z,5.00
2019-04-20T03:45:59.481Z,5.00
2019-04-20T03:49:20.244Z,5.00
2019-04-20T03:53:04.143Z,5.10
2019-04-20T03:56:28.316Z,5.20
2019-04-20T03:59:55.027Z,5.20
2019-04-20T04:03:31.778Z,5.10
2019-04-20T04:06:24.124Z,5.00
2019-04-20T04:09:35.307Z,5.00
2019-04-20T04:13:07.291Z,4.90
2019-04-20T04:16:18.130Z,4.80
2019-04-20T04:19:28.435Z,4.80
2019-04-20T04:22:50.246Z,4.80
2019-04-20T04:26:00.880Z,4.70
2019-04-20T04:29:18.118Z,4.90
2019-04-20T04:32:21.233Z,5.00
2019-04-20T04:35:20.004Z,5.10
2019-04-20T04:38:37.406Z,5.00
2019-04-20T04:41:39.747Z,5.00
2019-04-20T04:44:43.317Z,4.90
2019-04-20T04:47:40.896Z,4.90
2019-04-20T04:50:57.461Z,4.90
2019-04-20T04:54:05.935Z,5.10
2019-04-20T04:57:05.291Z,5.10
2019-04-20T05:00:17.931Z,5.10
2019-04-20T05:03:41.312Z,5.20
2019-04-20T05:06:45.812Z,5.20
2019-04-20T05:09:41.521Z,5.30
2019-04-20T05:12:50.209Z,5.40
2019-04-20T05:16:07.528Z,5.40
2019-04-20T05:19:40.909Z,5.50
2019-04-20T05:22:38.983Z,5.60
2019-04-20T05:26:10.063Z,5.80
2019-04-20T05:29:06.700Z,5.90
2019-04-20T05:32:12.443Z,6.00
2019-04-20T05:35:30.725Z,6.00
2019-04-20T05:41:45.468Z,6.30
2019-04-20T05:44:59.506Z,6.50
2019-04-20T05:48:04.847Z,6.50
2019-04-20T05:51:20.771Z,6.60
2019-04-20T05:54:25.541Z,6.60
2019-04-20T05:57:36.206Z,6.80
2019-04-20T06:00:48.121Z,7.20
2019-04-20T06:03:51.270Z,7.40
2019-04-20T06:07:01.709Z,7.60
2019-04-20T06:10:12.154Z,7.80
2019-04-20T06:13:30.013Z,8.00
2019-04-20T06:17:04.871Z,8.20
2019-04-20T06:20:12.729Z,8.40
2019-04-20T06:23:50.664Z,8.40
2019-04-20T06:26:59.252Z,8.80
2019-04-20T06:30:08.561Z,9.10
2019-04-20T06:34:19.320Z,10.00
2019-04-20T06:36:57.159Z,12.50
2019-04-20T06:40:29.303Z,14.80
2019-04-20T06:43:13.199Z,16.10
2019-04-20T06:46:29.218Z,16.60
2019-04-20T06:53:01.921Z,18.30
2019-04-20T06:56:15.629Z,19.70
2019-04-20T06:59:32.039Z,20.30
2019-04-20T07:02:41.698Z,20.30
2019-04-20T07:05:45.785Z,20.60
2019-04-20T07:09:00.873Z,18.40
2019-04-20T07:12:02.915Z,18.60
2019-04-20T07:14:58.832Z,20.40
2019-04-20T07:18:23.002Z,22.30
2019-04-20T07:21:52.557Z,23.70
2019-04-20T07:25:11.670Z,22.10
2019-04-20T07:28:09.727Z,21.40
2019-04-20T07:31:06.782Z,20.40
2019-04-20T07:34:21.464Z,20.20
2019-04-20T07:38:07.139Z,21.00
2019-04-20T07:40:50.617Z,22.30
2019-04-20T07:44:04.420Z,23.60
2019-04-20T07:47:18.378Z,23.20
2019-04-20T07:50:09.324Z,23.40
2019-04-20T07:53:21.498Z,23.70
2019-04-20T07:56:34.984Z,24.50
2019-04-20T07:59:30.016Z,24.80
2019-04-20T08:03:12.835Z,25.40
2019-04-20T08:06:32.155Z,25.60
2019-04-20T08:09:42.126Z,23.70
2019-04-20T08:13:01.945Z,24.20
2019-04-20T08:16:07.292Z,24.80
2019-04-20T08:19:17.429Z,23.10
2019-04-20T08:22:26.675Z,21.90
2019-04-20T08:25:26.634Z,21.60
2019-04-20T08:28:44.188Z,23.30
2019-04-20T08:32:32.503Z,25.20
2019-04-20T08:35:48.122Z,24.20
2019-04-20T08:42:03.037Z,24.50
2019-04-20T08:45:21.214Z,25.30
2019-04-20T08:48:27.555Z,25.70
2019-04-20T08:51:25.323Z,25.90
2019-04-20T08:54:32.950Z,26.10
2019-04-20T08:57:24.756Z,24.80
2019-04-20T09:00:39.590Z,24.80
2019-04-20T09:03:52.949Z,24.40
2019-04-20T09:07:00.960Z,24.10
2019-04-20T09:10:24.343Z,24.00
2019-04-20T09:13:19.804Z,25.90
2019-04-20T09:16:15.373Z,26.10
2019-04-20T09:19:29.927Z,25.00
2019-04-20T09:22:49.392Z,25.30
2019-04-20T09:26:10.506Z,26.40
2019-04-20T09:29:09.609Z,26.90
2019-04-20T09:32:23.510Z,27.20
2019-04-20T09:35:30.179Z,26.40
2019-04-20T09:38:56.724Z,26.90
2019-04-20T09:42:19.535Z,27.40
2019-04-20T09:46:13.678Z,27.60
2019-04-20T09:49:37.441Z,27.50
2019-04-20T09:52:50.084Z,27.80
2019-04-20T09:55:59.503Z,28.50
2019-04-20T09:59:07.984Z,28.30
2019-04-20T10:02:05.495Z,28.30
2019-04-20T10:05:03.531Z,28.30
2019-04-20T10:08:11.799Z,27.70
2019-04-20T10:11:19.411Z,27.70
2019-04-20T10:14:26.932Z,27.50
2019-04-20T10:17:35.195Z,27.10
2019-04-20T10:20:43.566Z,27.50
2019-04-20T10:23:50.917Z,27.70
2019-04-20T10:26:58.795Z,27.00
2019-04-20T10:30:06.320Z,26.70
2019-04-20T10:33:13.367Z,26.80
2019-04-20T10:36:35.315Z,26.60
2019-04-20T10:39:42.759Z,26.90
2019-04-20T10:42:50.163Z,27.40
2019-04-20T10:45:57.245Z,27.30
2019-04-20T10:49:04.884Z,28.30
2019-04-20T10:52:13.725Z,29.30
2019-04-20T10:55:20.784Z,29.00
2019-04-20T10:58:27.712Z,28.20
2019-04-20T11:01:35.734Z,28.30
2019-04-20T11:04:42.777Z,27.20
2019-04-20T11:07:50.513Z,25.80
2019-04-20T11:11:08.342Z,27.50
2019-04-20T11:14:13.374Z,27.40
2019-04-20T11:17:14.737Z,27.30
2019-04-20T11:20:21.615Z,27.20
2019-04-20T11:23:28.742Z,25.60
2019-04-20T11:26:38.276Z,26.30
2019-04-20T11:29:44.443Z,25.60
2019-04-20T11:32:51.906Z,24.50
2019-04-20T11:35:59.152Z,23.00
2019-04-20T11:39:11.290Z,22.40
2019-04-20T11:42:19.463Z,22.30
2019-04-20T11:45:26.705Z,21.80
2019-04-20T11:48:33.808Z,21.80
2019-04-20T11:51:41.427Z,21.90
2019-04-20T11:54:48.500Z,21.70
2019-04-20T11:57:56.208Z,21.20
2019-04-20T12:01:16.154Z,21.20
2019-04-20T12:04:36.031Z,21.10
2019-04-20T12:07:49.102Z,21.10
2019-04-20T12:10:59.543Z,21.00
2019-04-20T12:14:04.770Z,20.70
2019-04-20T12:17:11.659Z,20.90
2019-04-20T12:20:22.747Z,20.90
2019-04-20T12:23:30.624Z,20.70
2019-04-20T12:26:38.632Z,20.90
2019-04-20T12:29:45.782Z,20.80
2019-04-20T12:32:57.522Z,20.70
2019-04-20T12:36:02.510Z,20.60
2019-04-20T12:39:11.024Z,20.60
2019-04-20T12:42:19.016Z,20.50
2019-04-20T12:45:26.222Z,20.50
2019-04-20T12:48:33.594Z,20.50
2019-04-20T12:51:48.660Z,20.50
2019-04-20T12:54:50.364Z,20.70
2019-04-20T12:57:58.402Z,20.80
2019-04-20T13:01:06.622Z,20.90
2019-04-20T13:04:14.393Z,20.90
2019-04-20T13:07:22.769Z,20.90
2019-04-20T13:10:29.701Z,21.10
2019-04-20T13:13:50.328Z,21.00
2019-04-20T13:16:58.566Z,21.00
2019-04-20T13:20:05.936Z,21.00
2019-04-20T13:23:13.038Z,20.90
2019-04-20T13:26:20.074Z,20.80
2019-04-20T13:29:26.924Z,20.80
2019-04-20T13:32:34.023Z,20.70
2019-04-20T13:35:40.937Z,20.80
2019-04-20T13:38:47.982Z,20.70
2019-04-20T13:42:05.337Z,20.80
2019-04-20T13:45:04.377Z,20.90
2019-04-20T13:48:11.251Z,20.90
2019-04-20T13:51:18.911Z,20.90
2019-04-20T13:54:28.005Z,20.90
2019-04-20T13:57:56.266Z,21.00
2019-04-20T14:01:24.858Z,20.90
2019-04-20T14:04:54.847Z,20.70
2019-04-20T14:08:05.328Z,20.70
2019-04-20T14:11:13.243Z,20.80
2019-04-20T14:14:21.375Z,20.80
2019-04-20T14:17:29.023Z,20.90
2019-04-20T14:20:36.242Z,21.00
2019-04-20T14:23:43.262Z,20.80
2019-04-20T14:26:50.774Z,20.90
2019-04-20T14:29:59.136Z,21.00
2019-04-20T14:33:06.097Z,21.00
2019-04-20T14:36:12.987Z,21.10
2019-04-20T14:39:20.411Z,21.10
2019-04-20T14:42:36.427Z,21.00
2019-04-20T14:45:36.654Z,20.90
2019-04-20T14:48:44.865Z,20.90
2019-04-20T14:51:54.490Z,20.90
2019-04-20T14:55:01.627Z,20.90
2019-04-20T14:58:27.535Z,21.00
2019-04-20T15:01:38.613Z,21.00
2019-04-20T15:04:47.067Z,21.00
2019-04-20T15:07:54.451Z,20.90
2019-04-20T15:11:01.372Z,21.00
2019-04-20T15:14:09.027Z,21.00
2019-04-20T15:17:37.870Z,21.00
2019-04-20T15:20:47.862Z,20.90
2019-04-20T15:23:55.418Z,21.00
2019-04-20T15:27:02.512Z,20.90
2019-04-20T15:30:09.615Z,21.00
2019-04-20T15:33:16.995Z,21.10
2019-04-20T15:36:24.278Z,21.10
2019-04-20T15:39:31.142Z,21.10
2019-04-20T15:42:50.530Z,21.00
2019-04-20T15:45:47.511Z,21.10
2019-04-20T15:48:55.792Z,21.00
2019-04-20T15:52:03.933Z,20.90
2019-04-20T15:55:19.570Z,20.80
2019-04-20T15:58:20.643Z,20.90
2019-04-20T16:01:32.283Z,20.90
2019-04-20T16:05:08.231Z,20.90
2019-04-20T16:08:30.245Z,20.70
2019-04-20T16:11:37.246Z,20.60
2019-04-20T16:14:44.090Z,20.60
2019-04-20T16:17:53.104Z,20.70
2019-04-20T16:21:06.234Z,20.70
2019-04-20T16:24:12.983Z,20.70
2019-04-20T16:27:47.751Z,20.60
2019-04-20T16:30:55.816Z,20.70
2019-04-20T16:34:03.360Z,20.60
2019-04-20T16:37:10.666Z,20.40
2019-04-20T16:40:17.749Z,20.20
2019-04-20T16:43:30.451Z,20.20
2019-04-20T16:46:34.212Z,20.10
2019-04-20T16:49:41.206Z,20.00
2019-04-20T16:52:48.822Z,20.00
2019-04-20T16:55:56.834Z,20.00
2019-04-20T16:59:07.967Z,19.90
2019-04-20T17:02:15.686Z,19.80
2019-04-20T17:05:21.152Z,19.80
2019-04-20T17:08:29.195Z,19.80
2019-04-20T17:11:36.279Z,19.80
2019-04-20T17:14:43.382Z,19.70
2019-04-20T17:17:52.830Z,19.60
2019-04-20T17:21:05.388Z,19.50
2019-04-20T17:24:07.540Z,19.50
2019-04-20T17:27:37.159Z,19.50
2019-04-20T17:30:55.070Z,19.50
2019-04-20T17:34:31.477Z,19.40
2019-04-20T17:37:24.706Z,19.30
2019-04-20T17:40:54.185Z,19.20
2019-04-20T17:44:01.433Z,19.10
2019-04-20T17:47:00.577Z,19.00
2019-04-20T17:50:17.235Z,18.90
2019-04-20T17:53:28.336Z,18.90
2019-04-20T17:56:22.200Z,18.70
2019-04-20T17:59:30.282Z,18.60
2019-04-20T18:03:01.277Z,18.50
2019-04-20T18:06:12.690Z,18.40
2019-04-20T18:09:17.866Z,18.20
2019-04-20T18:12:15.492Z,18.10
2019-04-20T18:15:36.952Z,18.00
2019-04-20T18:19:01.952Z,17.90
2019-04-20T18:22:09.858Z,17.80
2019-04-20T18:25:38.484Z,17.70
2019-04-20T18:28:39.978Z,17.60
2019-04-20T18:31:55.482Z,17.40
2019-04-20T18:35:28.781Z,17.40
2019-04-20T18:38:39.257Z,17.40
2019-04-20T18:41:48.622Z,17.30
2019-04-20T18:45:09.153Z,17.10
2019-04-20T18:48:18.379Z,16.90
2019-04-20T18:51:10.002Z,16.70
2019-04-20T18:54:22.070Z,16.60
2019-04-20T18:57:29.194Z,16.60
2019-04-20T19:00:40.444Z,16.60
2019-04-20T19:03:45.547Z,16.50
2019-04-20T19:06:52.068Z,16.50
2019-04-20T19:10:02.590Z,16.50
2019-04-20T19:13:23.468Z,16.50
2019-04-20T19:16:35.586Z,16.40
2019-04-20T19:19:50.983Z,16.30
2019-04-20T19:22:55.800Z,16.30
2019-04-20T19:26:09.539Z,16.20
2019-04-20T19:29:22.161Z,16.20
2019-04-20T19:32:35.941Z,16.20
2019-04-20T19:35:40.851Z,16.10
2019-04-20T19:38:49.449Z,16.10
2019-04-20T19:41:52.695Z,16.00
2019-04-20T19:45:25.088Z,15.80
2019-04-20T19:48:21.344Z,15.60
2019-04-20T19:51:35.780Z,15.50
2019-04-20T19:54:43.390Z,15.50
2019-04-20T19:57:50.427Z,15.50
2019-04-20T20:00:49.078Z,15.50
2019-04-20T20:03:58.736Z,15.50
2019-04-20T20:07:05.558Z,15.40
2019-04-20T20:10:12.771Z,15.20
2019-04-20T20:13:20.386Z,15.10
2019-04-20T20:16:37.895Z,14.90
2019-04-20T20:20:05.358Z,14.70
2019-04-20T20:22:49.680Z,14.60
2019-04-20T20:25:53.231Z,14.50
2019-04-20T20:29:08.167Z,14.30
2019-04-20T20:32:23.410Z,14.30
2019-04-20T20:35:23.553Z,14.20
2019-04-20T20:38:35.225Z,14.10
2019-04-20T20:41:49.266Z,14.10
2019-04-20T20:44:50.785Z,14.10
2019-04-20T20:48:09.182Z,14.00
2019-04-20T20:51:15.061Z,13.90
2019-04-20T20:54:22.345Z,13.60
2019-04-20T20:57:23.909Z,13.40
2019-04-20T21:00:41.880Z,13.20
2019-04-20T21:03:40.384Z,12.90
2019-04-20T21:06:42.580Z,12.60
2019-04-20T21:09:50.419Z,12.40
2019-04-20T21:13:01.420Z,12.20
2019-04-20T21:16:13.603Z,12.10
2019-04-20T21:19:28.448Z,11.90
2019-04-20T21:22:44.599Z,11.90
2019-04-20T21:25:40.779Z,11.70
2019-04-20T21:28:43.987Z,11.60
2019-04-20T21:31:57.799Z,11.70
2019-04-20T21:35:03.437Z,11.70
2019-04-20T21:38:11.405Z,11.70
2019-04-20T21:41:20.075Z,11.60
2019-04-20T21:44:29.391Z,11.60
2019-04-20T21:47:37.412Z,11.40
2019-04-20T21:50:58.292Z,11.20
2019-04-20T21:53:53.470Z,11.10
2019-04-20T21:57:03.141Z,11.00
2019-04-20T22:00:21.687Z,11.00
2019-04-20T22:03:20.417Z,11.00
2019-04-20T22:06:28.450Z,11.00
2019-04-20T22:09:41.370Z,11.10
2019-04-20T22:12:49.045Z,11.00
2019-04-20T22:15:59.481Z,10.90
2019-04-20T22:19:16.019Z,10.90
2019-04-20T22:22:22.818Z,10.80
2019-04-20T22:25:37.385Z,10.70
2019-04-20T22:28:27.442Z,10.60
2019-04-20T22:31:34.312Z,10.40
2019-04-20T22:34:41.837Z,10.30
2019-04-20T22:37:59.767Z,10.20
2019-04-20T22:41:11.038Z,10.10
2019-04-20T22:44:18.409Z,10.00
2019-04-20T22:47:28.157Z,9.90
2019-04-20T22:50:44.852Z,10.00
2019-04-20T22:53:49.864Z,10.00
2019-04-20T22:56:59.892Z,10.00
2019-04-20T23:00:03.432Z,10.00
2019-04-20T23:03:04.995Z,9.90
2019-04-20T23:06:12.547Z,9.90
2019-04-20T23:09:20.617Z,9.80
2019-04-20T23:12:29.274Z,9.70
2019-04-20T23:15:36.303Z,9.60
2019-04-20T23:18:44.426Z,9.40
2019-04-20T23:21:57.239Z,9.30
2019-04-20T23:24:59.956Z,9.40
2019-04-20T23:28:12.377Z,9.40
2019-04-20T23:31:20.165Z,9.50
2019-04-20T23:34:27.298Z,9.40
2019-04-20T23:37:35.613Z,9.30
2019-04-20T23:40:41.766Z,9.20
2019-04-20T23:44:04.018Z,9.20
2019-04-20T23:47:18.373Z,9.10
2019-04-20T23:50:40.924Z,9.00
2019-04-20T23:53:43.785Z,8.90
2019-04-20T23:56:41.566Z,8.80
2019-04-20T23:59:49.884Z,8.60
